Tropical Cyclones
[Index]
Season 2017-2018 Tropical Cyclone KENI Track Map
Season 2017-2018 Summaries: [BoM-AU] [JTWC-AU] [JTWC-SIO] [JTWC-SPAC] [JTWC-SH]
<<- Previous TC | JTWC 2017-2018 Season | Next TC ->>

click for intensity scale information  Lat/long Grid: Show Hide

 Date Labels: Show Hide

Joint Typhoon Warning Centre Cyclone Data

Name: KENI

06 Apr 2018 06:00 UTC to 11 Apr 2018 18:00 UTC

    date/time    lat    long     hPa   cat  kts
2018-04-06 06   14.9   171.9    1008         20          
2018-04-06 12   15.4   171.4    1008         20          
2018-04-06 18   15.0   171.2    1006         25          
2018-04-07 00   15.3   171.4    1004         30          
2018-04-07 06   15.9   171.5    1004         30          
2018-04-07 12   16.7   171.6    1004         30          
2018-04-07 18   17.1   171.3    1004         30          
2018-04-08 00   17.3   170.4    1003         30          
2018-04-08 06   16.8   170.2    1003         30          
2018-04-08 09   16.4   170.0    1003         30          
2018-04-08 12   16.3   170.2    1003         30          
2018-04-08 18   16.3   170.4    1001         35          
2018-04-09 00   16.6   171.5     997    1    40          
2018-04-09 06   16.9   172.5     997    1    45          
2018-04-09 12   17.3   173.8     993    2    55          
2018-04-09 12   17.3   173.8     993    2    55          
2018-04-09 18   17.9   175.3     987    2    65          
2018-04-09 18   17.9   175.3     987    2    65          
2018-04-09 18   17.9   175.3     987    2    65          
2018-04-10 00   18.7   177.1     980    3    75          
2018-04-10 00   18.7   177.1     980    3    75          
2018-04-10 00   18.7   177.1     980    3    75          
2018-04-10 06   19.6   179.2     968    3    90          
2018-04-10 06   19.6   179.2     968    3    90          
2018-04-10 06   19.6   179.2     968    3    90          
2018-04-10 12   21.3   178.6W    968    3    85          
2018-04-10 12   21.3   178.6W    968    3    85          
2018-04-10 12   21.3   178.6W    968    3    85          
2018-04-10 18   23.2   176.6W    970    3    75          
2018-04-10 18   23.2   176.6W    970    3    75          
2018-04-10 18   23.2   176.6W    970    3    75          
2018-04-11 00   25.3   174.9W    975    2    65          
2018-04-11 00   25.3   174.9W    975    2    65          
2018-04-11 00   25.3   174.9W    975    2    65          
2018-04-11 06   27.5   173.2W    975    2    60          
2018-04-11 06   27.5   173.2W    975    2    60          
2018-04-11 12   30.4   171.3W    977    2    55          
2018-04-11 12   30.4   171.3W    977    2    55          
2018-04-11 18   33.9   169.1W    973    1    50          
2018-04-11 18   33.9   169.1W    973    1    50          
Winds are 1-min average.

Tropical cyclone tracks developed by Michael Bath using data from the Joint Typhoon Warning Centre Best Tracks and Google Maps.


Document: tropical_cyclone_keni.htm
Updated: 17 June 2020
[Australian Severe Weather index] [Copyright Notice] [Email Contacts] [Search This Site] [Privacy Policy]


Main Index Home Page Stock Weather Photos Extreme Storms Discussion Storm News and Storm Chasing Reports Tropical Cyclones / Hurricanes / Typhoons Weather Data and Links Wild Fires / Bushfires Weather Observation Techniques Weather Picture Catalogue Tornado Pictures and Reports Stock Video Footage and DVDs for sale